createdAt,value
2023-03-19T00:00:57.604Z,104.00
2023-03-19T00:03:24.799Z,149.63
2023-03-19T00:05:54.710Z,143.37
2023-03-19T00:08:22.763Z,107.63
2023-03-19T00:10:50.322Z,121.77
2023-03-19T00:13:17.509Z,102.63
2023-03-19T00:15:44.680Z,75.60
2023-03-19T00:18:12.168Z,80.00
2023-03-19T00:20:39.331Z,73.20
2023-03-19T00:23:06.475Z,68.57
2023-03-19T00:25:33.925Z,64.20
2023-03-19T00:28:01.604Z,69.77
2023-03-19T00:30:29.216Z,81.10
2023-03-19T00:32:56.417Z,67.43
2023-03-19T00:35:23.552Z,72.10
2023-03-19T00:37:50.726Z,71.40
2023-03-19T00:40:17.854Z,72.63
2023-03-19T00:42:45.016Z,68.23
2023-03-19T00:45:12.972Z,68.07
2023-03-19T00:47:40.076Z,63.77
2023-03-19T00:50:07.340Z,55.20
2023-03-19T00:52:34.521Z,48.30
2023-03-19T00:55:01.784Z,50.40
2023-03-19T00:57:28.922Z,49.50
2023-03-19T00:59:56.157Z,42.57
2023-03-19T01:02:23.266Z,37.27
2023-03-19T01:04:50.575Z,35.60
2023-03-19T01:07:17.745Z,38.33
2023-03-19T01:09:44.938Z,38.53
2023-03-19T01:12:12.064Z,35.13
2023-03-19T01:14:39.266Z,33.63
2023-03-19T01:17:06.756Z,42.63
2023-03-19T01:19:34.005Z,43.87
2023-03-19T01:22:01.244Z,41.67
2023-03-19T01:24:32.575Z,48.20
2023-03-19T01:26:59.713Z,38.73
2023-03-19T01:29:26.844Z,45.23
2023-03-19T01:31:53.941Z,46.77
2023-03-19T01:34:21.596Z,47.50
2023-03-19T01:36:49.104Z,42.70
2023-03-19T01:39:16.255Z,74.63
2023-03-19T01:41:43.372Z,79.83
2023-03-19T01:44:42.821Z,54.03
2023-03-19T01:47:20.377Z,54.40
2023-03-19T01:49:48.422Z,58.13
2023-03-19T01:52:15.733Z,58.13
2023-03-19T01:54:42.834Z,57.23
2023-03-19T01:57:10.653Z,58.00
2023-03-19T01:59:47.964Z,66.50
2023-03-19T02:02:27.401Z,69.93
2023-03-19T02:04:57.103Z,71.87
2023-03-19T02:07:24.246Z,85.97
2023-03-19T02:09:51.599Z,72.03
2023-03-19T02:12:18.734Z,78.63
2023-03-19T02:14:46.056Z,83.53
2023-03-19T02:17:13.218Z,89.23
2023-03-19T02:20:01.175Z,155.90
2023-03-19T02:22:28.759Z,108.87
2023-03-19T02:25:00.917Z,85.37
2023-03-19T02:27:28.160Z,90.37
2023-03-19T02:29:55.445Z,78.00
2023-03-19T02:32:22.550Z,59.37
2023-03-19T02:34:49.679Z,42.30
2023-03-19T02:37:27.422Z,46.10
2023-03-19T02:39:59.022Z,46.80
2023-03-19T02:42:26.732Z,58.50
2023-03-19T02:44:53.870Z,61.03
2023-03-19T02:47:21.096Z,73.77
2023-03-19T02:49:48.202Z,60.47
2023-03-19T02:52:15.591Z,69.57
2023-03-19T02:54:43.992Z,52.37
2023-03-19T02:57:11.106Z,58.73
2023-03-19T02:59:39.012Z,90.50
2023-03-19T03:02:06.900Z,90.47
2023-03-19T03:04:34.107Z,86.80
2023-03-19T03:07:01.772Z,76.20
2023-03-19T03:09:28.879Z,65.83
2023-03-19T03:11:55.986Z,61.97
2023-03-19T03:14:23.163Z,74.07
2023-03-19T03:16:50.892Z,60.57
2023-03-19T03:19:18.044Z,63.27
2023-03-19T03:21:45.253Z,64.77
2023-03-19T03:24:12.355Z,60.83
2023-03-19T03:26:39.524Z,60.20
2023-03-19T03:29:06.871Z,59.23
2023-03-19T03:31:34.773Z,77.80
2023-03-19T03:34:02.164Z,67.17
2023-03-19T03:36:29.330Z,70.30
2023-03-19T03:38:56.463Z,56.63
2023-03-19T03:41:23.595Z,79.73
2023-03-19T03:43:50.886Z,68.53
2023-03-19T03:46:18.125Z,61.20
2023-03-19T03:48:45.320Z,54.40
2023-03-19T03:51:12.452Z,61.07
2023-03-19T03:53:39.594Z,66.57
2023-03-19T03:56:06.900Z,83.13
2023-03-19T03:58:34.053Z,67.33
2023-03-19T04:01:01.227Z,77.63
2023-03-19T04:03:28.363Z,68.47
2023-03-19T04:05:55.959Z,73.37
2023-03-19T04:08:23.527Z,54.83
2023-03-19T04:10:50.696Z,53.57
2023-03-19T04:13:17.890Z,44.70
2023-03-19T04:15:45.039Z,55.10
2023-03-19T04:18:12.179Z,57.03
2023-03-19T04:20:40.170Z,53.67
2023-03-19T04:23:07.257Z,50.03
2023-03-19T04:25:34.446Z,46.70
2023-03-19T04:28:02.100Z,53.60
2023-03-19T04:30:29.279Z,57.57
2023-03-19T04:32:56.842Z,63.03
2023-03-19T04:35:24.130Z,57.53
2023-03-19T04:37:51.656Z,60.73
2023-03-19T04:40:19.354Z,61.23
2023-03-19T04:42:46.777Z,53.73
2023-03-19T04:45:13.978Z,64.87
2023-03-19T04:47:41.211Z,58.67
2023-03-19T04:50:09.393Z,59.07
2023-03-19T04:52:37.454Z,54.20
2023-03-19T04:55:05.310Z,57.90
2023-03-19T04:57:32.459Z,61.87
2023-03-19T04:59:59.624Z,54.37
2023-03-19T05:02:27.291Z,55.77
2023-03-19T05:04:54.493Z,68.70
2023-03-19T05:07:21.617Z,77.47
2023-03-19T05:09:48.759Z,69.10
2023-03-19T05:12:15.936Z,71.97
2023-03-19T05:14:43.046Z,72.50
2023-03-19T05:17:11.223Z,49.07
2023-03-19T05:19:39.663Z,48.40
2023-03-19T05:22:06.811Z,34.00
2023-03-19T05:24:33.921Z,36.87
2023-03-19T05:27:01.077Z,37.03
2023-03-19T05:29:28.196Z,38.97
2023-03-19T05:31:55.340Z,40.67
2023-03-19T05:34:22.537Z,37.87
2023-03-19T05:36:50.120Z,40.10
2023-03-19T05:39:17.254Z,40.07
2023-03-19T05:41:44.436Z,41.43
2023-03-19T05:44:11.917Z,45.20
2023-03-19T05:46:39.132Z,75.37
2023-03-19T05:49:06.366Z,90.00
2023-03-19T05:51:33.464Z,67.77
2023-03-19T05:54:00.759Z,71.97
2023-03-19T05:56:27.971Z,81.87
2023-03-19T05:58:55.309Z,75.07
2023-03-19T06:01:22.589Z,76.93
2023-03-19T06:03:49.811Z,63.60
2023-03-19T06:06:17.306Z,57.43
2023-03-19T06:08:44.438Z,76.13
2023-03-19T06:11:11.591Z,75.90
2023-03-19T06:13:39.188Z,60.33
2023-03-19T06:16:06.656Z,70.07
2023-03-19T06:18:33.816Z,105.90
2023-03-19T06:21:01.104Z,111.07
2023-03-19T06:23:28.243Z,118.23
2023-03-19T06:25:55.494Z,64.97
2023-03-19T06:28:22.647Z,42.40
2023-03-19T06:30:49.793Z,37.77
2023-03-19T06:33:17.470Z,36.57
2023-03-19T06:35:44.742Z,34.17
2023-03-19T06:38:12.261Z,36.20
2023-03-19T06:40:39.385Z,25.73
2023-03-19T06:43:07.247Z,25.47
2023-03-19T06:45:34.436Z,27.20
2023-03-19T06:48:01.596Z,21.43
2023-03-19T06:50:28.718Z,21.47
2023-03-19T06:52:56.146Z,51.73
2023-03-19T06:55:23.327Z,43.13
2023-03-19T06:57:50.961Z,41.77
2023-03-19T07:00:18.615Z,43.83
2023-03-19T07:02:45.971Z,30.47
2023-03-19T07:05:13.371Z,31.50
2023-03-19T07:07:40.853Z,27.83
2023-03-19T07:10:08.869Z,27.23
2023-03-19T07:12:36.155Z,41.67
2023-03-19T07:15:04.778Z,38.03
2023-03-19T07:17:31.946Z,25.27
2023-03-19T07:19:59.064Z,28.00
2023-03-19T07:22:26.238Z,29.83
2023-03-19T07:24:53.401Z,27.53
2023-03-19T07:27:20.972Z,28.07
2023-03-19T07:29:48.087Z,27.60
2023-03-19T07:32:15.268Z,29.53
2023-03-19T07:34:42.515Z,30.87
2023-03-19T07:37:09.622Z,32.50
2023-03-19T07:39:37.099Z,28.83
2023-03-19T07:42:04.693Z,31.50
2023-03-19T07:44:31.807Z,33.13
2023-03-19T07:46:58.942Z,24.77
2023-03-19T07:49:26.336Z,29.00
2023-03-19T07:51:53.521Z,24.13
2023-03-19T07:54:21.437Z,24.23
2023-03-19T07:56:48.539Z,22.37
2023-03-19T07:59:15.683Z,24.33
2023-03-19T08:01:42.879Z,14.40
2023-03-19T08:04:10.091Z,13.02
2023-03-19T08:06:38.507Z,22.02
2023-03-19T08:09:05.870Z,19.77
2023-03-19T08:11:32.977Z,14.35
2023-03-19T08:14:00.646Z,13.45
2023-03-19T08:16:27.839Z,11.88
2023-03-19T08:18:54.992Z,11.13
2023-03-19T08:21:22.451Z,10.38
2023-03-19T08:23:49.617Z,7.68
2023-03-19T08:26:17.063Z,7.32
2023-03-19T08:28:44.243Z,8.10
2023-03-19T08:31:11.969Z,8.30
2023-03-19T08:33:39.183Z,7.82
2023-03-19T08:36:07.727Z,9.38
2023-03-19T08:38:34.897Z,7.45
2023-03-19T08:41:04.194Z,5.53
2023-03-19T08:43:31.708Z,7.85
2023-03-19T08:45:58.867Z,7.28
2023-03-19T08:48:26.388Z,5.05
2023-03-19T08:50:54.523Z,4.18
2023-03-19T08:53:21.688Z,5.80
2023-03-19T08:55:52.815Z,4.78
2023-03-19T08:58:20.050Z,7.25
2023-03-19T09:00:47.483Z,6.00
2023-03-19T09:03:14.629Z,9.93
2023-03-19T09:05:41.789Z,13.00
2023-03-19T09:08:08.991Z,7.05
2023-03-19T09:10:36.476Z,3.22
2023-03-19T09:13:03.707Z,5.00
2023-03-19T09:15:30.955Z,3.78
2023-03-19T09:17:58.072Z,2.70
2023-03-19T09:20:25.203Z,2.83
2023-03-19T09:22:52.402Z,3.53
2023-03-19T09:25:19.552Z,4.18
2023-03-19T09:27:46.674Z,3.95
2023-03-19T09:30:14.202Z,5.10
2023-03-19T09:32:41.386Z,5.47
2023-03-19T09:35:08.722Z,3.33
2023-03-19T09:37:36.058Z,4.15
2023-03-19T09:40:04.885Z,5.40
2023-03-19T09:42:50.253Z,3.75
2023-03-19T09:45:18.410Z,4.55
2023-03-19T09:47:46.604Z,4.78
2023-03-19T09:50:14.679Z,3.75
2023-03-19T09:52:47.934Z,3.92
2023-03-19T09:55:18.167Z,3.08
2023-03-19T09:57:45.414Z,3.30
2023-03-19T10:00:20.384Z,3.28
2023-03-19T10:02:47.648Z,3.30
2023-03-19T10:05:37.380Z,3.30
2023-03-19T10:08:04.586Z,3.90
2023-03-19T10:10:36.895Z,5.85
2023-03-19T10:13:16.018Z,3.67
2023-03-19T10:15:44.580Z,3.70
2023-03-19T10:18:20.888Z,3.20
2023-03-19T10:20:49.594Z,4.40
2023-03-19T10:23:25.956Z,3.72
2023-03-19T10:25:53.661Z,4.90
2023-03-19T10:28:20.794Z,4.50
2023-03-19T10:30:53.798Z,5.10
2023-03-19T10:33:21.468Z,3.90
2023-03-19T10:35:49.595Z,4.18
2023-03-19T10:38:24.068Z,6.55
2023-03-19T10:41:09.880Z,3.63
2023-03-19T10:43:37.267Z,3.88
2023-03-19T10:46:04.467Z,5.78
2023-03-19T10:48:32.500Z,4.45
2023-03-19T10:51:00.646Z,4.07
2023-03-19T10:53:29.627Z,4.82
2023-03-19T10:55:57.928Z,4.85
2023-03-19T10:58:26.233Z,4.10
2023-03-19T11:00:57.334Z,3.40
2023-03-19T11:03:29.621Z,4.93
2023-03-19T11:06:16.038Z,4.18
2023-03-19T11:08:43.625Z,4.78
2023-03-19T11:11:23.730Z,6.00
2023-03-19T11:13:51.029Z,3.80
2023-03-19T11:16:18.176Z,5.45
2023-03-19T11:18:45.749Z,8.45
2023-03-19T11:21:23.138Z,4.20
2023-03-19T11:23:53.508Z,3.78
2023-03-19T11:26:21.667Z,5.63
2023-03-19T11:28:52.234Z,4.75
2023-03-19T11:31:25.238Z,4.00
2023-03-19T11:34:01.618Z,3.00
2023-03-19T11:36:37.973Z,4.28
2023-03-19T11:39:11.274Z,3.25
2023-03-19T11:41:56.575Z,3.72
2023-03-19T11:44:42.381Z,3.92
2023-03-19T11:47:24.549Z,3.15
2023-03-19T11:50:18.364Z,3.80
2023-03-19T11:53:03.953Z,3.30
2023-03-19T11:55:36.270Z,4.25
2023-03-19T11:58:06.467Z,9.93
2023-03-19T12:00:36.359Z,6.93
2023-03-19T12:03:09.346Z,4.00
2023-03-19T12:05:52.075Z,4.60
2023-03-19T12:08:30.899Z,7.40
2023-03-19T12:10:58.180Z,5.60
2023-03-19T12:13:25.667Z,5.80
2023-03-19T12:16:08.581Z,4.75
2023-03-19T12:18:44.992Z,3.10
2023-03-19T12:21:12.627Z,3.83
2023-03-19T12:23:49.031Z,3.38
2023-03-19T12:26:25.733Z,4.47
2023-03-19T12:28:52.988Z,4.40
2023-03-19T12:31:33.478Z,3.45
2023-03-19T12:34:00.582Z,5.35
2023-03-19T12:36:29.735Z,2.90
2023-03-19T12:39:01.152Z,3.35
2023-03-19T12:41:28.645Z,3.35
2023-03-19T12:43:55.775Z,3.95
2023-03-19T12:46:25.952Z,3.63
2023-03-19T12:49:12.048Z,5.75
2023-03-19T12:51:41.927Z,4.25
2023-03-19T12:54:11.889Z,4.25
2023-03-19T12:56:57.977Z,4.95
2023-03-19T12:59:37.168Z,3.65
2023-03-19T13:02:06.168Z,3.60
2023-03-19T13:04:39.798Z,9.93
2023-03-19T13:07:08.244Z,4.72
2023-03-19T13:09:43.214Z,7.10
2023-03-19T13:12:13.378Z,3.20
2023-03-19T13:14:46.645Z,4.30
2023-03-19T13:17:21.484Z,7.65
2023-03-19T13:19:52.648Z,3.72
2023-03-19T13:22:20.397Z,3.95
2023-03-19T13:24:47.603Z,3.38
2023-03-19T13:27:16.922Z,4.78
2023-03-19T13:30:01.527Z,4.10
2023-03-19T13:32:37.133Z,3.40
2023-03-19T13:35:14.617Z,4.53
2023-03-19T13:37:42.925Z,4.18
2023-03-19T13:40:28.946Z,3.97
2023-03-19T13:42:59.041Z,4.10
2023-03-19T13:45:26.426Z,4.90
2023-03-19T13:47:54.746Z,3.53
2023-03-19T13:50:22.021Z,4.32
2023-03-19T13:52:50.131Z,3.72
2023-03-19T13:55:26.833Z,6.50
2023-03-19T13:58:02.028Z,4.10
2023-03-19T14:00:58.701Z,5.50
2023-03-19T14:03:26.574Z,3.65
2023-03-19T14:05:54.351Z,6.10
2023-03-19T14:08:32.745Z,6.22
2023-03-19T14:11:00.951Z,4.65
2023-03-19T14:13:35.993Z,4.72
2023-03-19T14:16:07.458Z,5.30
2023-03-19T14:18:34.932Z,5.22
2023-03-19T14:21:06.778Z,4.18
2023-03-19T14:23:42.261Z,4.75
2023-03-19T14:26:23.569Z,6.35
2023-03-19T14:29:00.935Z,6.80
2023-03-19T14:31:28.426Z,5.97
2023-03-19T14:34:04.533Z,5.43
2023-03-19T14:36:31.885Z,4.82
2023-03-19T14:39:34.567Z,5.55
2023-03-19T14:42:22.037Z,6.43
2023-03-19T14:45:01.488Z,4.45
2023-03-19T14:47:39.594Z,6.95
2023-03-19T14:50:22.040Z,4.60
2023-03-19T14:52:53.679Z,8.52
2023-03-19T14:55:20.962Z,6.28
2023-03-19T14:57:48.223Z,4.15
2023-03-19T15:00:19.234Z,4.80
2023-03-19T15:02:47.555Z,10.30
2023-03-19T15:05:26.010Z,6.20
2023-03-19T15:07:54.573Z,5.78
2023-03-19T15:10:22.330Z,12.50
2023-03-19T15:12:55.676Z,5.78
2023-03-19T15:15:25.724Z,9.43
2023-03-19T15:18:03.113Z,9.60
2023-03-19T15:20:36.806Z,14.88
2023-03-19T15:23:11.044Z,7.80
2023-03-19T15:25:50.793Z,13.10
2023-03-19T15:28:18.619Z,11.90
2023-03-19T15:30:58.444Z,14.27
2023-03-19T15:33:40.091Z,22.77
2023-03-19T15:36:13.991Z,256.30
2023-03-19T15:38:49.519Z,16.77
2023-03-19T15:41:16.640Z,10.65
2023-03-19T15:43:43.787Z,12.27
2023-03-19T15:46:11.835Z,7.85
2023-03-19T15:48:40.308Z,7.65
2023-03-19T15:51:07.427Z,16.20
2023-03-19T15:53:35.062Z,12.60
2023-03-19T15:56:02.748Z,12.70
2023-03-19T15:58:30.803Z,10.45
2023-03-19T16:00:59.274Z,8.75
2023-03-19T16:03:27.533Z,8.73
2023-03-19T16:06:07.655Z,8.45
2023-03-19T16:08:34.816Z,9.65
2023-03-19T16:11:20.414Z,9.63
2023-03-19T16:13:53.730Z,15.15
2023-03-19T16:16:21.694Z,18.42
2023-03-19T16:18:53.035Z,34.92
2023-03-19T16:21:53.332Z,25.08
2023-03-19T16:24:31.015Z,19.58
2023-03-19T16:26:58.447Z,32.60
2023-03-19T16:29:25.558Z,25.08
2023-03-19T16:31:53.561Z,21.67
2023-03-19T16:34:24.573Z,98.15
2023-03-19T16:36:51.744Z,52.03
2023-03-19T16:39:30.911Z,48.13
2023-03-19T16:42:09.937Z,76.18
2023-03-19T16:44:40.043Z,76.75
2023-03-19T16:47:13.934Z,67.90
2023-03-19T16:49:41.084Z,76.05
2023-03-19T16:52:11.172Z,97.90
2023-03-19T16:54:38.280Z,106.82
2023-03-19T16:57:05.440Z,78.78
2023-03-19T16:59:32.584Z,88.32
2023-03-19T17:01:59.740Z,118.45
2023-03-19T17:04:26.995Z,100.30
2023-03-19T17:06:54.142Z,127.45
2023-03-19T17:09:21.642Z,131.57
2023-03-19T17:11:48.764Z,138.43
2023-03-19T17:14:18.523Z,119.47
2023-03-19T17:16:50.538Z,79.68
2023-03-19T17:19:24.124Z,82.85
2023-03-19T17:21:53.472Z,99.68
2023-03-19T17:24:23.934Z,109.57
2023-03-19T17:26:51.428Z,99.00
2023-03-19T17:29:20.196Z,92.70
2023-03-19T17:31:47.495Z,91.55
2023-03-19T17:34:16.565Z,86.03
2023-03-19T17:36:45.417Z,80.75
2023-03-19T17:39:12.524Z,76.35
2023-03-19T17:41:40.325Z,107.10
2023-03-19T17:44:07.571Z,106.88
2023-03-19T17:46:37.535Z,136.38
2023-03-19T17:49:04.999Z,157.35
2023-03-19T17:51:32.207Z,135.70
2023-03-19T17:54:00.585Z,118.85
2023-03-19T17:56:27.730Z,110.47
2023-03-19T17:58:55.188Z,113.78
2023-03-19T18:01:23.481Z,121.72
2023-03-19T18:03:50.887Z,124.25
2023-03-19T18:06:18.654Z,120.45
2023-03-19T18:08:46.102Z,125.85
2023-03-19T18:11:13.570Z,116.07
2023-03-19T18:13:41.076Z,107.30
2023-03-19T18:16:40.858Z,116.60
2023-03-19T18:19:12.915Z,408.58
2023-03-19T18:21:40.036Z,141.15
2023-03-19T18:24:07.373Z,127.90
2023-03-19T18:26:34.502Z,141.75
2023-03-19T18:29:01.763Z,164.85
2023-03-19T18:31:30.391Z,132.48
2023-03-19T18:33:58.938Z,139.93
2023-03-19T18:36:26.840Z,116.30
2023-03-19T18:38:55.089Z,119.20
2023-03-19T18:41:22.599Z,109.05
2023-03-19T18:43:49.836Z,105.35
2023-03-19T18:46:21.277Z,96.45
2023-03-19T18:48:48.558Z,96.82
2023-03-19T18:51:15.889Z,111.82
2023-03-19T18:53:43.047Z,112.22
2023-03-19T18:56:20.597Z,110.32
2023-03-19T18:58:47.693Z,75.13
2023-03-19T19:01:17.693Z,82.50
2023-03-19T19:03:45.348Z,84.13
2023-03-19T19:06:26.332Z,118.90
2023-03-19T19:08:56.557Z,121.55
2023-03-19T19:11:23.695Z,109.85
2023-03-19T19:13:56.084Z,76.70
2023-03-19T19:16:26.322Z,103.35
2023-03-19T19:18:53.796Z,93.93
2023-03-19T19:21:21.055Z,81.65
2023-03-19T19:23:48.210Z,102.90
2023-03-19T19:26:19.427Z,104.05
2023-03-19T19:28:46.590Z,93.78
2023-03-19T19:31:20.265Z,82.32
2023-03-19T19:33:47.429Z,79.47
2023-03-19T19:36:14.536Z,77.63
2023-03-19T19:38:41.708Z,77.70
2023-03-19T19:41:13.313Z,73.60
2023-03-19T19:43:40.415Z,77.35
2023-03-19T19:46:07.640Z,79.20
2023-03-19T19:48:34.762Z,74.32
2023-03-19T19:51:01.868Z,75.82
2023-03-19T19:53:30.598Z,89.32
2023-03-19T19:55:57.860Z,85.27
2023-03-19T19:58:25.961Z,84.18
2023-03-19T20:01:02.701Z,141.27
2023-03-19T20:03:31.299Z,172.65
2023-03-19T20:06:00.703Z,183.27
2023-03-19T20:08:28.780Z,290.47
2023-03-19T20:10:56.112Z,278.27
2023-03-19T20:13:30.396Z,211.05
2023-03-19T20:15:58.742Z,198.53
2023-03-19T20:18:30.468Z,226.53
2023-03-19T20:20:58.283Z,235.10
2023-03-19T20:23:26.769Z,232.18
2023-03-19T20:25:54.924Z,217.55
2023-03-19T20:28:32.369Z,211.47
2023-03-19T20:30:59.542Z,186.73
2023-03-19T20:33:27.414Z,162.88
2023-03-19T20:35:55.672Z,152.00
2023-03-19T20:38:22.971Z,133.70
2023-03-19T20:40:51.197Z,132.50
2023-03-19T20:43:31.791Z,147.63
2023-03-19T20:45:59.487Z,118.27
2023-03-19T20:48:27.274Z,127.80
2023-03-19T20:50:54.787Z,124.30
2023-03-19T20:53:22.046Z,130.80
2023-03-19T20:55:49.250Z,137.90
2023-03-19T20:58:29.606Z,131.90
2023-03-19T21:00:57.824Z,135.20
2023-03-19T21:03:25.717Z,150.67
2023-03-19T21:05:53.472Z,153.83
2023-03-19T21:08:26.295Z,158.00
2023-03-19T21:10:53.681Z,158.73
2023-03-19T21:13:21.847Z,150.03
2023-03-19T21:15:53.874Z,142.53
2023-03-19T21:18:21.293Z,139.87
2023-03-19T21:20:49.591Z,129.57
2023-03-19T21:23:21.753Z,119.33
2023-03-19T21:25:49.295Z,119.70
2023-03-19T21:28:35.345Z,119.70
2023-03-19T21:31:02.653Z,126.60
2023-03-19T21:33:30.786Z,116.00
2023-03-19T21:35:58.138Z,113.77
2023-03-19T21:38:25.394Z,105.03
2023-03-19T21:40:52.839Z,109.17
2023-03-19T21:43:21.495Z,126.70
2023-03-19T21:45:49.490Z,133.63
2023-03-19T21:48:25.819Z,146.40
2023-03-19T21:50:53.126Z,109.87
2023-03-19T21:53:21.193Z,108.20
2023-03-19T21:55:48.717Z,88.70
2023-03-19T21:58:16.646Z,80.97
2023-03-19T22:00:43.945Z,79.57
2023-03-19T22:03:14.617Z,78.20
2023-03-19T22:05:41.761Z,85.03
2023-03-19T22:08:08.875Z,89.47
2023-03-19T22:10:36.564Z,92.20
2023-03-19T22:13:04.586Z,85.17
2023-03-19T22:15:36.427Z,76.83
2023-03-19T22:18:07.535Z,80.10
2023-03-19T22:20:34.713Z,73.70
2023-03-19T22:23:02.501Z,85.93
2023-03-19T22:25:30.744Z,79.97
2023-03-19T22:27:57.876Z,103.67
2023-03-19T22:30:28.126Z,86.57
2023-03-19T22:32:55.641Z,76.50
2023-03-19T22:35:22.989Z,81.37
2023-03-19T22:37:50.124Z,76.17
2023-03-19T22:40:17.883Z,76.93
2023-03-19T22:42:45.569Z,78.90
2023-03-19T22:45:31.855Z,78.57
2023-03-19T22:47:59.218Z,87.83
2023-03-19T22:50:30.158Z,82.50
2023-03-19T22:52:57.413Z,79.53
2023-03-19T22:55:24.544Z,84.60
2023-03-19T22:57:51.718Z,77.97
2023-03-19T23:00:20.164Z,91.83
2023-03-19T23:02:47.908Z,114.10
2023-03-19T23:05:28.442Z,102.17
2023-03-19T23:07:55.621Z,95.80
2023-03-19T23:10:23.705Z,91.63
2023-03-19T23:12:50.908Z,87.17
2023-03-19T23:15:18.054Z,86.80
2023-03-19T23:17:46.319Z,78.57
2023-03-19T23:20:17.516Z,80.43
2023-03-19T23:22:45.729Z,83.43
2023-03-19T23:25:13.807Z,84.60
2023-03-19T23:27:41.052Z,75.07
2023-03-19T23:30:13.961Z,79.93
2023-03-19T23:32:41.684Z,79.00
2023-03-19T23:35:18.886Z,139.03
2023-03-19T23:37:46.393Z,192.87
2023-03-19T23:40:14.287Z,138.67
2023-03-19T23:42:51.782Z,123.67
2023-03-19T23:45:18.908Z,103.77
2023-03-19T23:47:46.294Z,97.93
2023-03-19T23:50:13.641Z,80.67
2023-03-19T23:52:41.034Z,71.83
2023-03-19T23:55:08.520Z,70.90
2023-03-19T23:57:36.714Z,65.90
